Time;durP1;ratioP1;P1;durP2;ratioP2;P2;SDS_P1;SDS_P2;PMS_P1;PMS_P2;Temp;Humidity;BMP_temperature;BMP_pressure;BME280_temperature;BME280_humidity;BME280_pressure;Samples;Min_cycle;Max_cycle;Signal;HPM_P1;HPM_P2
2021/10/04 00:00:42;;;;;;;12.75;11.75;;;16.50;77.80;;;;;;5015560;29;20110;-67
2021/10/04 00:03:14;;;;;;;11.50;10.60;;;16.50;78.10;;;;;;5018898;29;20065;-67
2021/10/04 00:05:46;;;;;;;12.30;11.30;;;16.40;78.20;;;;;;5017010;29;20132;-66
2021/10/04 00:08:17;;;;;;;12.32;11.32;;;16.40;78.60;;;;;;5003688;29;20137;-67
2021/10/04 00:10:50;;;;;;;12.70;11.60;;;16.40;78.60;;;;;;5017067;29;20965;-67
2021/10/04 00:13:22;;;;;;;12.13;11.02;;;16.30;78.70;;;;;;5017562;29;20164;-67
2021/10/04 00:15:54;;;;;;;11.10;10.30;;;16.30;78.60;;;;;;5016722;29;20587;-67
2021/10/04 00:18:26;;;;;;;11.68;10.68;;;16.20;75.40;;;;;;5005307;29;20136;-67
2021/10/04 00:20:58;;;;;;;11.20;10.30;;;16.20;73.20;;;;;;5018562;29;20073;-67
2021/10/04 00:23:30;;;;;;;10.88;9.80;;;16.10;70.60;;;;;;5018261;29;20643;-68
2021/10/04 00:26:02;;;;;;;10.38;9.57;;;16.00;69.80;;;;;;5017534;29;20830;-67
2021/10/04 00:28:34;;;;;;;10.40;9.50;;;16.00;68.90;;;;;;5018587;29;20140;-67
2021/10/04 00:31:06;;;;;;;10.50;9.70;;;15.90;68.80;;;;;;5018646;29;20520;-66
2021/10/04 00:33:38;;;;;;;10.27;9.48;;;15.90;69.50;;;;;;5017865;29;20056;-66
2021/10/04 00:36:11;;;;;;;10.00;9.18;;;15.80;68.60;;;;;;5018362;29;20076;-67
2021/10/04 00:38:42;;;;;;;10.18;9.43;;;15.80;68.70;;;;;;5003961;29;20143;-66
2021/10/04 00:41:14;;;;;;;10.10;9.30;;;15.70;69.20;;;;;;5018445;29;20061;-67
2021/10/04 00:43:46;;;;;;;10.02;9.23;;;15.70;69.30;;;;;;5016915;29;20472;-67
2021/10/04 00:46:18;;;;;;;9.80;9.10;;;15.70;69.80;;;;;;5016684;29;20053;-67
2021/10/04 00:48:51;;;;;;;9.68;8.98;;;15.70;69.60;;;;;;5004233;29;20057;-66
2021/10/04 00:51:23;;;;;;;10.05;9.23;;;15.60;69.30;;;;;;5005746;29;20061;-67
2021/10/04 00:53:55;;;;;;;10.13;9.35;;;15.60;69.50;;;;;;5004862;29;20068;-67
2021/10/04 00:56:27;;;;;;;9.75;9.05;;;15.60;70.20;;;;;;5017599;29;20171;-69
2021/10/04 00:59:00;;;;;;;9.63;8.93;;;15.60;69.60;;;;;;5016163;29;20147;-67
2021/10/04 01:01:32;;;;;;;10.50;9.65;;;15.60;69.60;;;;;;5017695;29;20125;-67
2021/10/04 01:04:05;;;;;;;10.07;9.27;;;15.50;69.60;;;;;;5018129;29;20132;-67
2021/10/04 01:06:37;;;;;;;9.90;9.10;;;15.50;69.60;;;;;;5016027;29;20477;-67
2021/10/04 01:09:09;;;;;;;10.18;9.38;;;15.40;69.90;;;;;;5017223;29;20073;-67
2021/10/04 01:11:41;;;;;;;10.43;9.63;;;15.40;69.60;;;;;;5017541;29;20041;-67
2021/10/04 01:14:13;;;;;;;9.80;9.10;;;15.40;69.60;;;;;;5003156;29;20077;-66
2021/10/04 01:16:45;;;;;;;10.00;9.20;;;15.40;69.60;;;;;;5016488;29;20136;-67
2021/10/04 01:19:17;;;;;;;10.18;9.38;;;15.40;69.70;;;;;;5018017;29;20122;-67
2021/10/04 01:21:49;;;;;;;9.60;8.80;;;15.40;69.70;;;;;;5016843;29;20117;-66
2021/10/04 01:24:21;;;;;;;9.98;9.18;;;15.40;69.80;;;;;;5016841;29;20060;-69
2021/10/04 01:26:53;;;;;;;9.93;9.13;;;15.30;69.90;;;;;;5002436;29;20058;-67
2021/10/04 01:29:25;;;;;;;9.82;8.88;;;15.20;69.90;;;;;;5017535;29;20461;-68
2021/10/04 01:31:57;;;;;;;9.88;8.90;;;15.20;70.00;;;;;;5003255;29;20136;-68
2021/10/04 01:34:29;;;;;;;9.55;8.75;;;15.20;70.30;;;;;;5017205;29;20472;-69
2021/10/04 01:37:01;;;;;;;9.25;8.43;;;15.20;70.20;;;;;;5015726;29;20172;-67
2021/10/04 01:39:33;;;;;;;9.35;8.65;;;15.10;70.80;;;;;;5017147;29;20081;-67
2021/10/04 01:42:05;;;;;;;9.73;8.93;;;15.10;71.00;;;;;;5015534;29;20063;-68
2021/10/04 01:44:37;;;;;;;9.90;9.10;;;15.10;72.00;;;;;;5017138;29;20563;-69
2021/10/04 01:47:09;;;;;;;10.30;9.50;;;15.10;71.30;;;;;;5013665;29;20133;-67
2021/10/04 01:49:43;;;;;;;10.38;9.57;;;15.10;71.60;;;;;;5014457;29;20135;-68
2021/10/04 01:52:15;;;;;;;9.65;8.95;;;15.00;71.80;;;;;;5004039;29;20065;-68
2021/10/04 01:54:47;;;;;;;10.30;9.50;;;15.00;71.80;;;;;;5016072;29;20059;-67
2021/10/04 01:57:19;;;;;;;10.07;9.30;;;15.00;71.70;;;;;;5015924;29;20072;-68
2021/10/04 01:59:51;;;;;;;10.10;9.30;;;15.00;72.00;;;;;;5016705;29;20132;-67
2021/10/04 02:02:23;;;;;;;9.95;9.15;;;15.00;71.80;;;;;;5016123;29;20172;-67
2021/10/04 02:04:55;;;;;;;9.90;9.10;;;14.90;72.00;;;;;;5016413;29;20658;-68
2021/10/04 02:07:27;;;;;;;9.50;8.80;;;14.90;71.60;;;;;;5015447;29;20556;-68
2021/10/04 02:09:59;;;;;;;9.85;9.05;;;14.90;71.30;;;;;;5015986;29;20053;-69
2021/10/04 02:12:32;;;;;;;10.70;9.80;;;15.00;71.30;;;;;;5016106;29;20045;-68
2021/10/04 02:15:04;;;;;;;9.70;9.00;;;14.80;70.60;;;;;;5005056;29;20128;-67
2021/10/04 02:17:38;;;;;;;9.90;9.13;;;14.80;70.60;;;;;;5015706;29;20101;-68
2021/10/04 02:20:17;;;;;;;10.18;9.38;;;14.80;70.60;;;;;;5015270;29;20524;-67
2021/10/04 02:22:49;;;;;;;9.90;9.20;;;14.80;70.60;;;;;;5016338;29;20168;-66
2021/10/04 02:25:22;;;;;;;10.63;9.82;;;14.70;70.60;;;;;;5015864;29;20865;-67
2021/10/04 02:27:54;;;;;;;9.93;9.02;;;14.70;70.60;;;;;;5016085;29;20042;-68
2021/10/04 02:30:26;;;;;;;9.82;9.02;;;14.70;70.80;;;;;;5016085;29;20187;-67
2021/10/04 02:32:58;;;;;;;9.57;8.88;;;14.70;70.90;;;;;;5016291;29;20557;-67
2021/10/04 02:35:30;;;;;;;9.93;9.13;;;14.70;71.00;;;;;;5016694;29;20515;-67
2021/10/04 02:38:03;;;;;;;9.60;8.90;;;14.70;70.80;;;;;;5016037;29;20133;-69
2021/10/04 02:40:35;;;;;;;9.70;8.90;;;14.80;71.40;;;;;;5015287;29;20049;-69
2021/10/04 02:43:11;;;;;;;9.77;8.98;;;14.80;70.40;;;;;;5018641;29;20075;-67
2021/10/04 02:45:44;;;;;;;9.35;8.65;;;14.80;70.70;;;;;;5015042;29;20057;-66
2021/10/04 02:48:17;;;;;;;9.50;8.70;;;14.80;70.60;;;;;;5015962;29;20057;-67
2021/10/04 02:50:49;;;;;;;9.98;8.98;;;14.80;70.40;;;;;;5003890;29;20145;-68
2021/10/04 02:53:21;;;;;;;9.50;8.65;;;14.80;70.30;;;;;;5016185;29;20128;-67
2021/10/04 02:55:53;;;;;;;9.77;9.05;;;14.80;71.20;;;;;;5015512;29;20499;-68
2021/10/04 02:58:25;;;;;;;9.40;8.50;;;14.80;70.70;;;;;;5018377;29;20067;-69
2021/10/04 03:00:57;;;;;;;9.45;8.75;;;14.80;71.00;;;;;;5014711;29;20057;-68
2021/10/04 03:03:29;;;;;;;8.85;8.07;;;14.70;71.50;;;;;;5016638;29;20057;-67
2021/10/04 03:06:01;;;;;;;8.73;7.93;;;14.70;71.80;;;;;;5004274;29;20166;-67
2021/10/04 03:08:33;;;;;;;9.07;8.15;;;14.70;72.00;;;;;;5016452;29;20124;-67
2021/10/04 03:11:05;;;;;;;8.65;7.95;;;14.70;72.20;;;;;;5014831;29;20150;-67
2021/10/04 03:13:37;;;;;;;8.98;7.90;;;14.70;72.40;;;;;;5015514;29;20045;-68
2021/10/04 03:16:09;;;;;;;8.93;8.23;;;14.60;72.90;;;;;;5013591;29;20050;-67
2021/10/04 03:18:41;;;;;;;8.77;8.07;;;14.60;72.80;;;;;;5016431;29;20064;-68
2021/10/04 03:21:13;;;;;;;9.18;8.27;;;14.60;73.10;;;;;;5016979;29;20053;-67
2021/10/04 03:23:45;;;;;;;8.40;7.60;;;14.60;73.30;;;;;;5019602;29;20412;-67
2021/10/04 03:26:17;;;;;;;9.25;8.38;;;14.60;73.20;;;;;;5017934;29;20412;-68
2021/10/04 03:28:49;;;;;;;9.05;7.75;;;14.70;73.40;;;;;;5019797;29;20124;-67
2021/10/04 03:31:21;;;;;;;8.50;7.70;;;14.70;73.70;;;;;;5018251;29;20082;-67
2021/10/04 03:33:53;;;;;;;8.85;8.15;;;14.70;73.60;;;;;;5019561;29;20456;-67
2021/10/04 03:36:25;;;;;;;8.52;7.82;;;14.70;73.70;;;;;;5017053;29;20071;-68
2021/10/04 03:38:57;;;;;;;8.50;7.80;;;14.70;73.40;;;;;;5018652;29;20433;-66
2021/10/04 03:41:29;;;;;;;8.60;7.90;;;14.70;73.50;;;;;;5006331;29;20057;-67
2021/10/04 03:44:01;;;;;;;8.90;8.18;;;14.70;73.80;;;;;;5019324;29;20517;-67
2021/10/04 03:46:33;;;;;;;9.05;8.35;;;14.70;74.00;;;;;;5017723;29;20144;-67
2021/10/04 03:49:05;;;;;;;9.32;8.43;;;14.70;74.30;;;;;;5019537;29;20044;-68
2021/10/04 03:51:37;;;;;;;8.85;8.05;;;14.60;73.70;;;;;;5018393;29;20046;-67
2021/10/04 03:54:09;;;;;;;8.57;7.88;;;14.70;73.90;;;;;;5018183;29;20128;-68
2021/10/04 03:56:40;;;;;;;8.60;7.90;;;14.60;73.20;;;;;;5017237;29;20538;-67
2021/10/04 03:59:12;;;;;;;9.30;8.50;;;14.60;73.10;;;;;;5019316;29;20060;-68
2021/10/04 04:01:44;;;;;;;8.80;8.10;;;14.50;73.00;;;;;;5018387;29;20460;-67
2021/10/04 04:04:16;;;;;;;8.60;7.90;;;14.50;73.00;;;;;;5018426;29;20057;-67
2021/10/04 04:06:48;;;;;;;8.50;7.80;;;14.50;72.80;;;;;;5003136;29;20072;-68
2021/10/04 04:09:21;;;;;;;8.63;7.93;;;14.40;72.90;;;;;;5002230;29;20056;-67
2021/10/04 04:11:53;;;;;;;8.80;8.02;;;14.40;72.70;;;;;;5019066;29;20057;-66
2021/10/04 04:14:25;;;;;;;8.60;7.75;;;14.40;72.90;;;;;;5017770;29;20524;-66
2021/10/04 04:16:57;;;;;;;8.30;7.50;;;14.40;72.60;;;;;;5016385;29;20053;-67
2021/10/04 04:19:29;;;;;;;8.85;8.05;;;14.30;72.70;;;;;;5017500;29;20105;-67
2021/10/04 04:22:01;;;;;;;9.00;8.20;;;14.30;72.90;;;;;;5018638;29;20498;-66
2021/10/04 04:24:33;;;;;;;8.15;7.45;;;14.30;73.00;;;;;;5017520;29;20132;-66
2021/10/04 04:27:06;;;;;;;8.25;7.55;;;14.20;73.10;;;;;;5018095;29;20224;-66
2021/10/04 04:29:39;;;;;;;8.02;7.30;;;14.10;73.30;;;;;;5017601;29;20053;-67
2021/10/04 04:32:11;;;;;;;8.23;7.45;;;14.10;73.40;;;;;;5017070;29;20133;-67
2021/10/04 04:34:43;;;;;;;8.75;7.85;;;14.00;73.90;;;;;;5002944;29;20061;-67
2021/10/04 04:37:15;;;;;;;8.07;7.43;;;14.00;73.90;;;;;;5017850;29;20567;-66
2021/10/04 04:39:47;;;;;;;8.32;7.43;;;13.90;74.20;;;;;;4974193;29;20056;-67
2021/10/04 04:42:21;;;;;;;8.35;7.65;;;13.90;74.20;;;;;;5018248;29;20052;-67
2021/10/04 04:44:53;;;;;;;8.23;7.53;;;13.90;74.20;;;;;;5015627;29;20105;-67
2021/10/04 04:47:25;;;;;;;8.38;7.57;;;13.90;74.40;;;;;;5017073;29;20081;-66
2021/10/04 04:49:57;;;;;;;8.70;7.93;;;13.90;74.50;;;;;;5018689;29;20472;-66
2021/10/04 04:52:29;;;;;;;8.52;7.82;;;13.90;74.60;;;;;;5018937;29;20050;-66
2021/10/04 04:55:02;;;;;;;8.40;7.70;;;13.90;74.60;;;;;;5017510;29;20045;-68
2021/10/04 04:57:35;;;;;;;9.13;8.25;;;13.90;74.80;;;;;;5016808;29;20059;-67
2021/10/04 05:00:09;;;;;;;8.88;8.18;;;13.90;74.90;;;;;;5016941;29;20153;-67
2021/10/04 05:02:46;;;;;;;9.10;8.30;;;13.90;74.90;;;;;;5017832;29;20061;-67
2021/10/04 05:05:19;;;;;;;8.07;7.30;;;13.90;75.20;;;;;;5001282;29;20054;-68
2021/10/04 05:07:52;;;;;;;7.70;7.07;;;13.90;75.30;;;;;;5015031;29;20185;-66
2021/10/04 05:10:23;;;;;;;7.70;7.10;;;13.90;75.20;;;;;;5016442;29;20124;-66
2021/10/04 05:12:55;;;;;;;7.20;6.57;;;14.00;75.40;;;;;;5016654;29;20055;-66
2021/10/04 05:15:30;;;;;;;7.85;7.05;;;13.90;75.50;;;;;;5016880;29;20516;-66
2021/10/04 05:18:02;;;;;;;7.38;6.68;;;13.90;75.90;;;;;;5016224;29;20123;-67
2021/10/04 05:20:35;;;;;;;7.40;6.80;;;13.90;75.80;;;;;;4999866;29;20077;-66
2021/10/04 05:23:06;;;;;;;7.50;6.85;;;13.90;75.80;;;;;;5016768;29;20948;-68
2021/10/04 05:25:39;;;;;;;7.55;6.93;;;13.80;76.00;;;;;;5015592;29;20868;-67
2021/10/04 05:28:11;;;;;;;8.32;7.53;;;13.90;76.30;;;;;;5013813;29;20041;-67
2021/10/04 05:30:43;;;;;;;7.78;7.13;;;13.80;76.20;;;;;;5015722;29;20056;-67
2021/10/04 05:33:15;;;;;;;7.80;7.05;;;13.80;76.10;;;;;;5014724;29;20771;-67
2021/10/04 05:35:47;;;;;;;7.90;7.20;;;13.80;75.70;;;;;;5000017;29;20132;-67
2021/10/04 05:38:19;;;;;;;7.57;6.90;;;13.90;76.20;;;;;;5013477;29;20049;-68
2021/10/04 05:40:51;;;;;;;8.10;7.15;;;13.80;76.00;;;;;;5014381;29;20608;-67
2021/10/04 05:43:23;;;;;;;8.07;7.38;;;13.90;76.20;;;;;;5015105;29;20148;-66
2021/10/04 05:45:55;;;;;;;7.45;6.85;;;13.90;76.00;;;;;;5014019;29;20472;-67
2021/10/04 05:48:27;;;;;;;7.95;7.15;;;13.90;75.70;;;;;;5014272;29;20053;-67
2021/10/04 05:50:59;;;;;;;7.90;7.20;;;13.90;76.00;;;;;;5015502;29;20056;-67
2021/10/04 05:53:31;;;;;;;7.80;7.00;;;13.90;76.00;;;;;;5014438;29;21033;-66
2021/10/04 05:56:04;;;;;;;7.70;7.00;;;13.90;75.80;;;;;;5015614;29;20296;-66
2021/10/04 05:58:36;;;;;;;8.07;7.38;;;13.90;75.60;;;;;;5015485;29;20056;-67
2021/10/04 06:01:07;;;;;;;8.20;7.50;;;13.90;75.80;;;;;;5015392;29;20061;-67
2021/10/04 06:03:39;;;;;;;7.50;6.88;;;14.00;75.60;;;;;;5014146;29;20124;-67
2021/10/04 06:06:11;;;;;;;7.57;6.88;;;13.90;75.80;;;;;;5015206;29;20107;-67
2021/10/04 06:08:43;;;;;;;8.23;7.32;;;13.90;76.00;;;;;;5000620;29;20122;-67
2021/10/04 06:11:16;;;;;;;8.13;6.93;;;13.90;75.90;;;;;;5002161;29;20041;-66
2021/10/04 06:13:48;;;;;;;8.13;7.32;;;13.90;76.00;;;;;;5016112;29;20048;-66
2021/10/04 06:16:19;;;;;;;7.53;6.82;;;13.90;76.10;;;;;;5001577;29;20152;-67
2021/10/04 06:18:51;;;;;;;7.65;6.95;;;13.90;76.00;;;;;;5002570;29;20043;-66
2021/10/04 06:21:23;;;;;;;7.93;7.13;;;13.90;76.40;;;;;;5004262;29;20060;-66
2021/10/04 06:23:56;;;;;;;8.13;7.38;;;13.90;76.70;;;;;;5004083;29;20683;-66
2021/10/04 06:26:28;;;;;;;8.38;7.68;;;13.90;76.70;;;;;;5015108;29;20158;-66
2021/10/04 06:28:59;;;;;;;8.38;7.50;;;13.90;76.80;;;;;;5004259;29;20128;-67
2021/10/04 06:31:32;;;;;;;7.72;7.07;;;13.90;76.70;;;;;;5017202;29;20088;-67
2021/10/04 06:34:04;;;;;;;8.02;7.13;;;13.90;76.90;;;;;;5005109;29;20080;-66
2021/10/04 06:36:36;;;;;;;8.40;7.70;;;13.90;76.80;;;;;;5001280;29;20053;-67
2021/10/04 06:39:08;;;;;;;8.60;7.70;;;13.90;77.10;;;;;;5017038;29;20045;-67
2021/10/04 06:41:41;;;;;;;8.73;8.02;;;13.90;76.70;;;;;;5015437;29;20939;-66
2021/10/04 06:44:13;;;;;;;8.45;7.65;;;13.90;76.70;;;;;;5017696;29;20109;-66
2021/10/04 06:47:03;;;;;;;7.50;6.85;;;13.90;76.60;;;;;;5015779;29;20049;-66
2021/10/04 06:49:36;;;;;;;7.13;6.53;;;13.90;76.60;;;;;;5020175;29;20033;-66
2021/10/04 06:52:08;;;;;;;7.57;6.88;;;13.90;77.40;;;;;;5017119;29;20048;-67
2021/10/04 06:54:40;;;;;;;7.57;6.85;;;13.90;77.00;;;;;;5016843;29;20487;-66
2021/10/04 06:57:12;;;;;;;8.10;7.18;;;13.90;77.50;;;;;;5006887;29;20114;-66
2021/10/04 06:59:43;;;;;;;7.35;6.65;;;13.90;77.40;;;;;;5021028;29;20397;-66
2021/10/04 07:02:15;;;;;;;7.60;6.80;;;13.90;77.50;;;;;;5019579;29;20869;-66
2021/10/04 07:04:47;;;;;;;7.90;7.20;;;13.90;77.60;;;;;;5020492;29;20533;-67
2021/10/04 07:07:19;;;;;;;8.02;7.32;;;13.90;77.80;;;;;;5005177;29;20568;-66
2021/10/04 07:09:51;;;;;;;8.13;7.38;;;13.90;77.30;;;;;;5009145;29;20048;-66
2021/10/04 07:12:24;;;;;;;7.70;7.00;;;13.90;77.40;;;;;;5019820;29;20052;-67
2021/10/04 07:14:56;;;;;;;8.63;7.30;;;13.90;77.60;;;;;;5007076;29;20109;-67
2021/10/04 07:17:28;;;;;;;7.65;6.85;;;13.90;77.50;;;;;;5018624;29;20053;-67
2021/10/04 07:20:00;;;;;;;8.02;7.10;;;14.00;77.20;;;;;;5020415;29;20065;-68
2021/10/04 07:22:32;;;;;;;7.20;6.50;;;13.90;77.50;;;;;;5006760;29;20128;-66
2021/10/04 07:25:05;;;;;;;7.60;6.90;;;13.90;77.40;;;;;;5020752;29;20064;-66
2021/10/04 07:27:37;;;;;;;7.28;6.68;;;13.90;77.10;;;;;;5018604;29;20046;-66
2021/10/04 07:30:10;;;;;;;7.78;7.15;;;13.90;77.00;;;;;;5019356;29;20109;-67
2021/10/04 07:32:42;;;;;;;7.88;7.10;;;13.90;76.80;;;;;;5006968;29;20207;-67
2021/10/04 07:35:15;;;;;;;7.70;6.78;;;13.90;76.80;;;;;;5005843;29;20077;-66
2021/10/04 07:37:47;;;;;;;7.18;6.47;;;13.90;77.60;;;;;;5019207;29;20045;-67
2021/10/04 07:40:20;;;;;;;7.63;6.97;;;13.90;77.10;;;;;;5018780;29;20055;-67
2021/10/04 07:42:52;;;;;;;7.60;6.90;;;13.90;77.30;;;;;;5021373;29;20611;-66
2021/10/04 07:45:25;;;;;;;7.57;6.97;;;13.90;76.90;;;;;;5020351;29;20049;-66
2021/10/04 07:47:57;;;;;;;8.13;7.18;;;13.90;77.60;;;;;;5009143;29;20100;-67
2021/10/04 07:50:30;;;;;;;7.68;7.07;;;13.80;77.60;;;;;;5020068;29;20050;-66
2021/10/04 07:53:02;;;;;;;8.00;7.30;;;13.80;77.50;;;;;;5454768;23;20036;-67
2021/10/04 07:55:34;;;;;;;8.05;7.25;;;13.80;77.50;;;;;;4996302;29;20125;-67
2021/10/04 07:58:06;;;;;;;7.90;7.20;;;13.80;77.80;;;;;;5012174;29;20053;-67
2021/10/04 08:00:38;;;;;;;8.70;7.20;;;13.90;77.90;;;;;;5008257;29;20106;-68
2021/10/04 08:03:11;;;;;;;8.07;7.32;;;13.90;77.90;;;;;;5004919;29;20457;-68
2021/10/04 08:05:42;;;;;;;7.88;7.18;;;13.90;78.00;;;;;;4992147;29;20515;-67
2021/10/04 08:08:14;;;;;;;7.93;7.22;;;13.90;78.20;;;;;;5003483;29;20055;-68
2021/10/04 08:10:46;;;;;;;8.60;7.68;;;13.90;78.60;;;;;;5006839;29;20402;-69
2021/10/04 08:13:18;;;;;;;7.97;7.28;;;13.90;79.00;;;;;;4989243;29;20054;-67
2021/10/04 08:15:50;;;;;;;7.43;6.72;;;13.90;79.20;;;;;;4990863;29;20045;-68
2021/10/04 08:18:22;;;;;;;8.82;7.60;;;13.90;78.90;;;;;;4976209;29;20111;-67
2021/10/04 08:20:54;;;;;;;8.10;7.40;;;14.00;78.80;;;;;;4992225;29;20047;-68
2021/10/04 08:23:26;;;;;;;8.35;7.60;;;14.00;79.00;;;;;;5004609;29;20065;-68
2021/10/04 08:25:58;;;;;;;8.77;7.97;;;14.00;79.60;;;;;;4989483;29;21571;-68
2021/10/04 08:28:31;;;;;;;8.77;7.90;;;14.00;78.80;;;;;;4990934;29;20049;-68
2021/10/04 08:31:04;;;;;;;8.35;7.63;;;14.10;79.10;;;;;;4990959;29;20066;-68
2021/10/04 08:33:36;;;;;;;8.45;7.68;;;14.10;79.40;;;;;;4991253;29;20045;-69
2021/10/04 08:36:08;;;;;;;8.10;7.40;;;14.10;79.40;;;;;;4989785;29;20492;-68
2021/10/04 08:38:40;;;;;;;8.00;7.30;;;14.10;79.50;;;;;;4991121;29;20052;-67
2021/10/04 08:41:12;;;;;;;8.60;7.90;;;14.10;79.30;;;;;;4980143;29;20050;-68
2021/10/04 08:43:48;;;;;;;8.77;7.90;;;14.10;79.30;;;;;;4988864;29;20129;-69
2021/10/04 08:46:21;;;;;;;8.43;7.63;;;14.10;79.40;;;;;;4987208;29;20110;-69
2021/10/04 08:48:53;;;;;;;9.00;8.20;;;14.10;79.60;;;;;;4990769;29;20054;-67
2021/10/04 08:51:25;;;;;;;8.45;7.65;;;14.10;79.80;;;;;;4992244;29;20122;-67
2021/10/04 08:53:57;;;;;;;9.10;8.30;;;14.10;80.10;;;;;;4991203;29;20824;-67
2021/10/04 08:56:29;;;;;;;8.70;8.00;;;14.20;80.80;;;;;;4989363;29;20413;-67
2021/10/04 08:59:01;;;;;;;8.63;7.82;;;14.20;80.40;;;;;;4988833;29;20053;-67
2021/10/04 09:01:33;;;;;;;8.65;7.95;;;14.20;80.60;;;;;;4976600;29;20087;-67
2021/10/04 09:04:05;;;;;;;8.43;7.63;;;14.20;80.50;;;;;;4990861;29;20417;-68
2021/10/04 09:06:39;;;;;;;8.88;8.18;;;14.20;80.40;;;;;;4987812;29;20057;-66
2021/10/04 09:09:14;;;;;;;8.50;7.80;;;14.20;80.40;;;;;;4991351;29;20064;-66
2021/10/04 09:11:49;;;;;;;8.75;7.85;;;14.20;80.20;;;;;;4987629;29;20066;-66
2021/10/04 09:14:29;;;;;;;9.10;8.30;;;14.20;80.20;;;;;;4990697;29;20069;-68
2021/10/04 09:17:03;;;;;;;8.73;8.02;;;14.20;80.30;;;;;;4989233;29;20854;-67
2021/10/04 09:19:41;;;;;;;8.73;7.93;;;14.30;80.60;;;;;;4987548;29;20047;-68
2021/10/04 09:22:21;;;;;;;8.90;8.02;;;14.30;80.60;;;;;;4989086;29;20417;-67
2021/10/04 09:24:59;;;;;;;8.27;7.57;;;14.30;80.80;;;;;;4987957;29;20049;-67
2021/10/04 09:27:42;;;;;;;8.70;7.80;;;14.30;80.90;;;;;;4989705;29;20112;-68
2021/10/04 09:30:23;;;;;;;8.52;7.80;;;14.40;80.60;;;;;;4989416;29;20058;-67
2021/10/04 09:33:02;;;;;;;8.40;7.70;;;14.40;81.00;;;;;;5002768;29;20074;-67
2021/10/04 09:35:34;;;;;;;8.10;7.38;;;14.40;81.00;;;;;;4990820;29;20061;-68
2021/10/04 09:38:05;;;;;;;7.38;6.78;;;14.30;81.40;;;;;;4988112;29;20510;-67
2021/10/04 09:40:40;;;;;;;7.68;6.97;;;14.30;80.90;;;;;;4986638;29;20046;-68
2021/10/04 09:43:25;;;;;;;7.18;6.53;;;14.30;81.10;;;;;;4989223;29;20107;-68
2021/10/04 09:46:06;;;;;;;8.00;7.30;;;14.40;81.10;;;;;;4990145;29;20057;-68
2021/10/04 09:48:38;;;;;;;9.52;8.70;;;14.40;82.10;;;;;;4990596;29;20050;-68
2021/10/04 09:51:15;;;;;;;8.70;8.00;;;14.40;82.00;;;;;;4988322;29;20129;-68
2021/10/04 09:54:10;;;;;;;8.05;7.35;;;14.40;81.50;;;;;;4989315;29;20211;-67
2021/10/04 09:56:42;;;;;;;8.70;8.00;;;14.40;81.10;;;;;;4988832;29;20466;-68
2021/10/04 09:59:14;;;;;;;8.50;7.80;;;14.40;81.40;;;;;;4990049;29;20601;-68
2021/10/04 10:01:47;;;;;;;7.90;7.20;;;14.40;81.10;;;;;;4988068;29;20144;-67
2021/10/04 10:04:20;;;;;;;8.32;7.53;;;14.40;81.50;;;;;;4989809;29;20163;-67
2021/10/04 10:06:52;;;;;;;7.90;7.20;;;14.40;81.00;;;;;;4988075;29;20050;-67
2021/10/04 10:09:31;;;;;;;7.65;6.95;;;14.40;81.30;;;;;;5002385;29;20050;-67
2021/10/04 10:12:04;;;;;;;8.18;7.47;;;14.50;81.60;;;;;;4990008;29;20179;-68
2021/10/04 10:14:43;;;;;;;8.75;7.95;;;14.50;81.90;;;;;;4988008;29;20053;-67
2021/10/04 10:17:28;;;;;;;9.48;8.68;;;14.50;82.30;;;;;;4989669;29;20517;-68
2021/10/04 10:20:01;;;;;;;8.77;8.05;;;14.50;82.50;;;;;;4987379;29;20826;-68
2021/10/04 10:22:45;;;;;;;8.88;8.18;;;14.50;82.40;;;;;;4989537;29;20069;-68
2021/10/04 10:25:32;;;;;;;8.45;7.75;;;14.50;82.10;;;;;;4987313;29;20070;-68
2021/10/04 10:28:23;;;;;;;9.25;8.45;;;14.60;82.50;;;;;;4985701;29;20050;-68
2021/10/04 10:30:54;;;;;;;;;;;14.60;83.50;;;;;;4989340;29;20077;-68
2021/10/04 10:33:47;;;;;;;9.40;8.60;;;14.60;83.40;;;;;;4991342;29;19929;-70
2021/10/04 10:36:55;;;;;;;8.88;8.07;;;14.60;83.10;;;;;;4991259;29;20070;-69
2021/10/04 10:39:37;;;;;;;7.82;7.13;;;14.70;83.00;;;;;;4994616;29;20708;-68
2021/10/04 10:42:15;;;;;;;7.70;7.00;;;14.70;83.20;;;;;;4993849;29;20530;-68
2021/10/04 10:44:58;;;;;;;9.30;8.00;;;14.70;83.30;;;;;;4993316;29;20056;-67
2021/10/04 10:47:36;;;;;;;8.68;7.97;;;14.60;83.80;;;;;;4990602;29;20153;-67
2021/10/04 10:50:27;;;;;;;7.88;7.15;;;14.60;84.00;;;;;;4991005;29;20090;-68
2021/10/04 10:52:59;;;;;;;8.43;7.63;;;14.70;83.30;;;;;;4989210;29;20513;-69
2021/10/04 10:55:37;;;;;;;10.05;9.15;;;14.70;83.60;;;;;;4989740;29;20540;-68
2021/10/04 10:58:15;;;;;;;8.52;7.82;;;14.70;84.30;;;;;;4989062;29;20501;-68
2021/10/04 11:00:50;;;;;;;8.68;7.88;;;14.70;85.00;;;;;;4993767;29;20054;-67
2021/10/04 11:03:26;;;;;;;7.97;7.28;;;14.70;83.80;;;;;;4990945;29;21048;-67
2021/10/04 11:06:06;;;;;;;8.73;7.93;;;14.70;84.10;;;;;;4990929;29;20054;-67
2021/10/04 11:08:47;;;;;;;8.15;7.50;;;14.70;84.20;;;;;;4992068;29;20149;-67
2021/10/04 11:11:20;;;;;;;8.60;7.90;;;14.80;83.80;;;;;;4991313;29;20141;-66
2021/10/04 11:13:58;;;;;;;8.30;7.60;;;14.80;84.00;;;;;;5473983;23;20061;-66
2021/10/04 11:16:37;;;;;;;8.30;7.60;;;14.80;83.50;;;;;;5000109;29;20046;-67
2021/10/04 11:19:21;;;;;;;9.32;8.48;;;14.80;83.10;;;;;;5022239;29;20069;-67
2021/10/04 11:21:54;;;;;;;9.35;8.50;;;14.90;83.80;;;;;;5019917;29;20049;-69
2021/10/04 11:24:26;;;;;;;8.18;7.47;;;14.90;83.60;;;;;;5019495;29;20049;-67
2021/10/04 11:27:00;;;;;;;9.00;8.23;;;14.90;83.50;;;;;;5017674;29;20049;-68
2021/10/04 11:29:34;;;;;;;8.93;8.13;;;14.90;82.90;;;;;;5019818;29;20077;-67
2021/10/04 11:32:14;;;;;;;9.68;8.88;;;14.90;82.80;;;;;;5015970;29;20056;-67
2021/10/04 11:34:46;;;;;;;8.80;8.10;;;15.00;83.20;;;;;;5018199;29;20461;-68
2021/10/04 11:37:24;;;;;;;8.60;7.90;;;15.00;82.00;;;;;;5017565;29;20055;-66
2021/10/04 11:39:56;;;;;;;8.82;8.13;;;15.00;81.60;;;;;;5002429;29;20052;-68
2021/10/04 11:42:28;;;;;;;9.43;8.63;;;15.00;81.20;;;;;;5018479;29;20766;-68
2021/10/04 11:45:00;;;;;;;8.95;8.25;;;15.00;81.20;;;;;;5000270;29;20156;-67
2021/10/04 11:47:39;;;;;;;9.05;8.35;;;15.00;81.10;;;;;;5016938;29;20085;-67
2021/10/04 11:50:16;;;;;;;9.07;8.38;;;15.00;81.40;;;;;;5001186;29;20057;-67
2021/10/04 11:52:51;;;;;;;9.18;8.27;;;15.00;81.10;;;;;;4999426;29;20516;-65
2021/10/04 11:55:23;;;;;;;9.30;8.60;;;15.10;80.70;;;;;;5017695;29;20124;-67
2021/10/04 11:57:55;;;;;;;8.90;8.07;;;15.00;80.50;;;;;;4999392;29;20045;-67
2021/10/04 12:00:27;;;;;;;8.95;8.25;;;15.00;80.80;;;;;;5018274;29;20056;-68
2021/10/04 12:02:58;;;;;;;8.68;7.97;;;15.10;80.60;;;;;;5020186;29;20045;-68
2021/10/04 12:05:32;;;;;;;8.88;8.18;;;15.10;80.70;;;;;;5019926;29;20079;-67
2021/10/04 12:08:10;;;;;;;8.63;7.93;;;15.10;80.60;;;;;;5019720;29;20057;-67
2021/10/04 12:10:51;;;;;;;9.27;8.48;;;15.20;80.70;;;;;;5017447;29;20636;-69
2021/10/04 12:13:24;;;;;;;8.77;8.07;;;15.30;80.30;;;;;;5018566;29;20045;-67
2021/10/04 12:15:59;;;;;;;9.27;8.48;;;15.30;80.40;;;;;;5017037;29;20141;-67
2021/10/04 12:18:39;;;;;;;8.73;8.02;;;15.40;79.90;;;;;;5000765;29;20464;-67
2021/10/04 12:21:16;;;;;;;9.43;8.63;;;15.40;79.50;;;;;;5016037;29;20045;-68
2021/10/04 12:24:09;;;;;;;9.18;8.38;;;15.50;80.00;;;;;;5019120;29;20481;-67
2021/10/04 12:26:50;;;;;;;9.48;8.77;;;15.50;79.30;;;;;;5017535;29;20049;-69
2021/10/04 12:29:36;;;;;;;9.60;8.80;;;15.60;79.20;;;;;;5017781;29;20082;-67
2021/10/04 12:32:17;;;;;;;9.25;8.55;;;15.60;78.70;;;;;;5016453;29;20045;-68
2021/10/04 12:35:06;;;;;;;9.10;8.40;;;15.60;78.80;;;;;;5019353;29;20097;-70
2021/10/04 12:37:46;;;;;;;9.52;8.82;;;15.70;79.20;;;;;;5019612;29;20068;-69
2021/10/04 12:40:22;;;;;;;9.00;8.20;;;15.70;78.20;;;;;;5018538;29;20089;-69
2021/10/04 12:43:02;;;;;;;9.27;8.57;;;15.70;78.30;;;;;;5017572;29;20654;-69
2021/10/04 12:45:35;;;;;;;9.17;8.47;;;15.60;77.40;;;;;;5016575;29;20081;-68
2021/10/04 12:48:16;;;;;;;9.50;8.70;;;15.60;77.40;;;;;;5014549;29;20895;-68
2021/10/04 12:50:49;;;;;;;8.95;8.25;;;15.50;78.10;;;;;;5017481;29;20121;-68
2021/10/04 12:53:24;;;;;;;9.25;8.55;;;15.60;78.40;;;;;;5016922;29;20049;-68
2021/10/04 12:56:03;;;;;;;9.88;9.07;;;15.60;78.50;;;;;;5015411;29;20125;-67
2021/10/04 12:58:37;;;;;;;9.37;8.67;;;15.50;79.50;;;;;;5018954;29;20138;-68
2021/10/04 13:01:11;;;;;;;9.70;8.95;;;15.60;78.90;;;;;;5016900;29;20049;-68
2021/10/04 13:03:54;;;;;;;9.23;8.52;;;15.50;78.40;;;;;;5018272;29;20057;-67
2021/10/04 13:06:31;;;;;;;9.75;8.95;;;15.50;79.10;;;;;;5016626;29;20053;-67
2021/10/04 13:09:05;;;;;;;9.35;8.65;;;15.50;78.80;;;;;;5017336;29;20048;-68
2021/10/04 13:11:44;;;;;;;8.77;8.07;;;15.40;78.80;;;;;;5015529;29;20041;-68
2021/10/04 13:14:17;;;;;;;9.68;8.98;;;15.40;79.10;;;;;;5017134;29;20050;-68
2021/10/04 13:16:50;;;;;;;9.50;8.80;;;15.50;79.10;;;;;;5016189;29;20507;-68
2021/10/04 13:19:22;;;;;;;9.65;8.85;;;15.50;78.60;;;;;;5017849;29;20054;-68